createdAt,value
2022-11-26T00:11:23.525Z,908.79947
2022-11-26T00:26:25.842Z,851.89695
2022-11-26T00:41:28.196Z,805.80915
2022-11-26T00:56:35.088Z,791.83038
2022-11-26T01:11:40.242Z,798.08284
2022-11-26T01:26:42.699Z,786.11161
2022-11-26T01:41:45.471Z,804.89242
2022-11-26T01:56:47.885Z,797.63297
2022-11-26T02:11:50.574Z,872.91845
2022-11-26T02:26:53.236Z,932.14806
2022-11-26T02:41:55.866Z,973.84771
2022-11-26T02:56:58.756Z,922.42553
2022-11-26T03:12:01.642Z,938.95206
2022-11-26T03:27:04.592Z,894.43792
2022-11-26T03:42:07.972Z,854.4691
2022-11-26T03:57:10.401Z,865.97357
2022-11-26T04:12:13.140Z,879.97562
2022-11-26T04:27:15.925Z,882.17007
2022-11-26T04:42:18.604Z,839.26503
2022-11-26T04:57:21.097Z,834.31653
2022-11-26T05:12:23.646Z,782.63324
2022-11-26T05:27:26.025Z,782.63324
2022-11-26T05:42:28.459Z,810.42432
2022-11-26T05:57:31.471Z,803.0652
2022-11-26T06:12:34.342Z,784.36857
2022-11-26T06:27:36.718Z,795.83852
2022-11-26T06:42:39.379Z,806.72798
2022-11-26T06:57:42.452Z,821.24252
2022-11-26T07:12:45.010Z,840.76104
2022-11-26T07:27:47.526Z,843.26629
2022-11-26T07:42:53.172Z,860.18287
2022-11-26T07:57:56.080Z,909.96834
2022-11-26T08:12:58.765Z,908.21616
2022-11-26T08:28:01.770Z,906.47071
2022-11-26T08:43:04.297Z,927.86935
2022-11-26T08:58:06.809Z,924.8371
2022-11-26T09:13:09.217Z,975.19002
2022-11-26T09:28:11.491Z,975.86257
2022-11-26T09:43:13.956Z,992.98296
2022-11-26T09:58:17.734Z,1059.9256
2022-11-26T10:13:22.489Z,1026.85101
2022-11-26T10:28:24.852Z,1032.09386
2022-11-26T10:43:27.402Z,1014.33742
2022-11-26T10:58:29.655Z,985.37654
2022-11-26T11:13:31.966Z,988.12899
2022-11-26T11:28:34.460Z,1038.15164
2022-11-26T11:43:36.994Z,1108.06628
2022-11-26T11:58:39.314Z,1085.1232
2022-11-26T12:13:41.553Z,1087.62541
2022-11-26T12:28:48.264Z,1071.9702
2022-11-26T12:43:53.513Z,1099.4566
2022-11-26T12:58:56.006Z,1083.46145
2022-11-26T13:13:58.526Z,1186.086
2022-11-26T13:29:00.764Z,1265.65346
2022-11-26T13:44:03.570Z,1239.0548
2022-11-26T13:59:06.034Z,1277.07632
2022-11-26T14:14:08.413Z,1214.59278
2022-11-26T14:29:10.624Z,1310.18569
2022-11-26T14:44:12.918Z,1427.85117
2022-11-26T14:59:15.187Z,1647.26475
2022-11-26T15:14:17.388Z,1825.80695
2022-11-26T15:29:19.804Z,1881.64943
2022-11-26T15:44:22.452Z,1933.06061
2022-11-26T15:59:25.092Z,1890.44806
2022-11-26T16:14:27.338Z,1843.64871
2022-11-26T16:29:29.558Z,1917.34467
2022-11-26T16:44:31.825Z,2219.60835
2022-11-26T16:59:34.058Z,2452.3402
2022-11-26T17:14:36.265Z,2568.05859
2022-11-26T17:29:42.453Z,2841.36599
2022-11-26T17:44:44.987Z,3041.37609
2022-11-26T17:59:47.267Z,3149.69442
2022-11-26T18:14:49.559Z,3308.0075
2022-11-26T18:29:51.829Z,3447.01632
2022-11-26T18:45:06.239Z,3680.10452
2022-11-26T19:00:08.608Z,3906.14267
2022-11-26T19:15:10.999Z,4002.82935
2022-11-26T19:30:13.431Z,4239.70088
2022-11-26T19:45:16.023Z,4380.80546
2022-11-26T20:00:18.799Z,4631.75174
2022-11-26T20:15:21.406Z,4866.72451
2022-11-26T20:30:23.872Z,5017.73102
2022-11-26T20:45:26.165Z,5099.09963
2022-11-26T21:00:28.376Z,4964.91281
2022-11-26T21:15:30.571Z,5168.9503
2022-11-26T21:30:33.176Z,5216.5904
2022-11-26T21:45:35.839Z,5265.11681
2022-11-26T22:00:38.605Z,5421.45648
2022-11-26T22:15:41.059Z,5334.59055
2022-11-26T22:30:43.326Z,5431.86235
2022-11-26T22:45:45.880Z,5549.02015
2022-11-26T23:00:48.305Z,5722.95303
2022-11-26T23:15:50.727Z,5787.32162
2022-11-26T23:30:53.306Z,6135.50182
2022-11-26T23:45:55.827Z,6274.94504
